Yilmaz Kaptan — TCAU2 — position and weather

sailwx.info

Track history (hours):
 
Tides and Currents Weather Stations Pressure Air Temp Water Temp Dewpoint Dewpoint Depression Visibility Wind Speed Wind Dir Waves Ship Positions

Yilmaz Kaptan

Last reported at 2018-May-07 14:21 UTC. Time now 2018-May-24 14:08 UTC.
Position N 40°52' E 029°12'.
Warning: this ship's position is 16 days out of date.

Length 73 m; draft 4.5 m.

Type: Cargo ship. MMSI: 271002143.

Date/timePositionNaut miles runAvg speedWind from/ knotsBaromVisibWave heightAir tempDewpointWater temp
2018-May-07 14:21N 40°52' E 029°12'0 0.0
2018-May-07 13:39N 40°52' E 029°12'0 0.0
2018-May-07 12:45N 40°52' E 029°12'0 0.0
2018-May-07 11:57N 40°52' E 029°12'0 0.0
2018-May-07 11:27N 40°52' E 029°12'0 0.0
2018-May-07 10:57N 40°52' E 029°12'0 0.0
2018-May-07 10:27N 40°52' E 029°12'0 0.0
2018-May-07 09:45N 40°52' E 029°12'0 0.0
2018-May-07 09:27N 40°52' E 029°12'0 0.0
2018-May-07 08:27N 40°52' E 029°12'  
2018-May-01 06:23N 43°27' E 028°54'8 7.6
2018-May-01 05:17N 43°36' E 028°52'3 7.5
2018-May-01 04:51N 43°39' E 028°52'3 7.6
2018-May-01 04:30N 43°41' E 028°51'4 7.5
2018-May-01 04:00N 43°45' E 028°50'5 7.4
2018-May-01 03:17N 43°50' E 028°50'2 7.6
2018-May-01 02:59N 43°53' E 028°50'4 7.8
2018-May-01 02:30N 43°56' E 028°49'4 7.5
2018-May-01 02:00N 43°60' E 028°47'4 7.5
2018-May-01 01:31N 44°03' E 028°44'4 7.5
2018-May-01 01:00N 44°06' E 028°42'3 6.7
2018-May-01 00:31N 44°09' E 028°39'1 1.2
2018-Apr-30 23:58N 44°09' E 028°39'0 0.0
2018-Apr-30 23:22N 44°09' E 028°39'0 0.0
2018-Apr-30 22:58N 44°09' E 028°39'0 0.0
2018-Apr-30 22:28N 44°09' E 028°39'0 0.0
2018-Apr-30 21:58N 44°09' E 028°39'0 0.0
2018-Apr-29 10:28N 44°09' E 028°39'0 0.0
2018-Apr-29 09:58N 44°09' E 028°39'0 0.0
2018-Apr-29 09:28N 44°09' E 028°39'0 0.0
2018-Apr-29 08:58N 44°09' E 028°39'0 0.0
2018-Apr-29 08:28N 44°09' E 028°39'0 0.0
2018-Apr-29 07:55N 44°09' E 028°39'0 0.0
2018-Apr-29 07:28N 44°09' E 028°39'0 0.0
2018-Apr-29 06:55N 44°09' E 028°39'0 0.0
2018-Apr-29 06:28N 44°09' E 028°39'0 0.0
2018-Apr-29 05:49N 44°09' E 028°39'0 0.0
2018-Apr-29 05:28N 44°09' E 028°39'0 0.0
2018-Apr-29 04:59N 44°09' E 028°39'0 0.0
2018-Apr-29 04:30N 44°09' E 028°39'0 0.0
2018-Apr-29 04:00N 44°09' E 028°39'0 0.0
2018-Apr-29 03:30N 44°09' E 028°39'0 0.0
2018-Apr-29 03:00N 44°09' E 028°39'0 0.0
2018-Apr-29 02:30N 44°09' E 028°39'0 0.0
2018-Apr-29 01:57N 44°09' E 028°39'0 0.0
2018-Apr-29 01:30N 44°09' E 028°39'0 0.0
2018-Apr-29 01:00N 44°09' E 028°39'0 0.0
2018-Apr-29 00:30N 44°09' E 028°39'0 0.0
2018-Apr-29 00:00N 44°09' E 028°39'0 0.0
2018-Apr-28 23:30N 44°10' E 028°39'0 0.0
2018-Apr-28 23:00N 44°09' E 028°39'0 0.0
2018-Apr-28 22:30N 44°10' E 028°39'0 0.0
2018-Apr-28 22:00N 44°09' E 028°39'0 0.0
2018-Apr-28 21:30N 44°09' E 028°39'0 0.0
2018-Apr-28 20:57N 44°09' E 028°39'0 0.0
2018-Apr-28 20:30N 44°10' E 028°39'0 0.1
2018-Apr-28 20:00N 44°09' E 028°39'0 0.0
2018-Apr-28 19:30N 44°09' E 028°39'0 0.0
2018-Apr-28 19:00N 44°09' E 028°39'0 0.0
2018-Apr-28 18:27N 44°09' E 028°39'0 0.0
2018-Apr-28 18:00N 44°09' E 028°39'0 0.0
2018-Apr-28 17:30N 44°09' E 028°39'0 0.0
2018-Apr-28 17:00N 44°09' E 028°39'0 0.0
2018-Apr-28 16:30N 44°09' E 028°39'0 0.0
2018-Apr-28 16:00N 44°09' E 028°39'0 0.0
2018-Apr-28 15:30N 44°09' E 028°39'0 0.0
2018-Apr-28 15:00N 44°09' E 028°39'0 0.0
2018-Apr-28 14:30N 44°09' E 028°39'0 0.0
2018-Apr-28 14:00N 44°10' E 028°39'0 0.0
2018-Apr-28 13:30N 44°09' E 028°39'0 0.0
2018-Apr-28 13:00N 44°09' E 028°39'0 0.0
2018-Apr-28 12:27N 44°09' E 028°39'0 0.0
2018-Apr-28 12:00N 44°09' E 028°39'0 0.1
2018-Apr-28 11:30N 44°10' E 028°39'0 0.1
2018-Apr-28 11:00N 44°09' E 028°39'0 0.0
2018-Apr-28 10:30N 44°09' E 028°39'0 0.0
2018-Apr-28 10:00N 44°09' E 028°39'0 0.0
2018-Apr-28 09:30N 44°09' E 028°39'0 0.0
2018-Apr-28 08:57N 44°09' E 028°39'0 0.1
2018-Apr-28 08:30N 44°10' E 028°39'0 0.1
2018-Apr-28 08:00N 44°09' E 028°39'0 0.0
2018-Apr-28 07:30N 44°09' E 028°39'0 0.0
2018-Apr-28 06:51N 44°09' E 028°39'0 0.0
2018-Apr-28 06:30N 44°09' E 028°39'0 0.0
2018-Apr-28 06:00N 44°09' E 028°39'0 0.0
2018-Apr-28 05:27N 44°09' E 028°39'0 0.0
2018-Apr-28 05:00N 44°09' E 028°39'0 0.0
2018-Apr-28 04:27N 44°09' E 028°39'0 0.0
2018-Apr-28 04:00N 44°09' E 028°39'0 0.0
2018-Apr-28 03:27N 44°09' E 028°39'0 0.0
2018-Apr-28 03:00N 44°09' E 028°39'0 0.0
2018-Apr-28 02:30N 44°09' E 028°39'0 0.0
2018-Apr-28 02:00N 44°09' E 028°39'0 0.0
2018-Apr-28 01:27N 44°09' E 028°39'0 0.0
2018-Apr-28 01:00N 44°09' E 028°39'0 0.0
2018-Apr-28 00:30N 44°09' E 028°39'0 0.0
2018-Apr-28 00:00N 44°09' E 028°39'0 0.0
2018-Apr-27 23:30N 44°09' E 028°39'0 0.0
2018-Apr-27 23:00N 44°09' E 028°39'0 0.0
2018-Apr-27 22:30N 44°09' E 028°39'0 0.0
2018-Apr-27 22:00N 44°09' E 028°39'0 0.0
2018-Apr-27 21:30N 44°09' E 028°39'0 0.0
2018-Apr-27 20:57N 44°09' E 028°39'0 0.0
2018-Apr-27 20:30N 44°09' E 028°39'0 0.0
2018-Apr-27 19:57N 44°09' E 028°39'0 0.0
2018-Apr-27 19:30N 44°09' E 028°39'0 0.0
2018-Apr-27 19:00N 44°09' E 028°39'0 0.0
2018-Apr-27 18:30N 44°09' E 028°39'0 0.0
2018-Apr-27 17:57N 44°09' E 028°39'0 0.0
2018-Apr-27 17:30N 44°09' E 028°39'0 0.0
2018-Apr-27 17:00N 44°09' E 028°39'0 0.0
2018-Apr-27 16:30N 44°09' E 028°39'0 0.0
2018-Apr-27 15:51N 44°09' E 028°39'0 0.0
2018-Apr-27 15:30N 44°09' E 028°39'0 0.0
2018-Apr-27 15:00N 44°09' E 028°39'0 0.0
2018-Apr-27 14:30N 44°09' E 028°39'  
Track history (hours):
 
Tides and Currents Weather Stations Pressure Air Temp Water Temp Dewpoint Dewpoint Depression Visibility Wind Speed Wind Dir Waves Ship Positions

Yilmaz Kaptan

Last reported at 2018-May-07 14:21 UTC. Time now 2018-May-24 14:08 UTC.
Position N 40°52' E 029°12'.
Warning: this ship's position is 16 days out of date.

Length 73 m; draft 4.5 m.

Type: Cargo ship. MMSI: 271002143.

Date/timePositionNaut miles runAvg speedWind from/ knotsBaromVisibWave heightAir tempDewpointWater temp
2018-May-07 14:21N 40°52' E 029°12'0 0.0
2018-May-07 13:39N 40°52' E 029°12'0 0.0
2018-May-07 12:45N 40°52' E 029°12'0 0.0
2018-May-07 11:57N 40°52' E 029°12'0 0.0
2018-May-07 11:27N 40°52' E 029°12'0 0.0
2018-May-07 10:57N 40°52' E 029°12'0 0.0
2018-May-07 10:27N 40°52' E 029°12'0 0.0
2018-May-07 09:45N 40°52' E 029°12'0 0.0
2018-May-07 09:27N 40°52' E 029°12'0 0.0
2018-May-07 08:27N 40°52' E 029°12'  
2018-May-01 06:23N 43°27' E 028°54'8 7.6
2018-May-01 05:17N 43°36' E 028°52'3 7.5
2018-May-01 04:51N 43°39' E 028°52'3 7.6
2018-May-01 04:30N 43°41' E 028°51'4 7.5
2018-May-01 04:00N 43°45' E 028°50'5 7.4
2018-May-01 03:17N 43°50' E 028°50'2 7.6
2018-May-01 02:59N 43°53' E 028°50'4 7.8
2018-May-01 02:30N 43°56' E 028°49'4 7.5
2018-May-01 02:00N 43°60' E 028°47'4 7.5
2018-May-01 01:31N 44°03' E 028°44'4 7.5
2018-May-01 01:00N 44°06' E 028°42'3 6.7
2018-May-01 00:31N 44°09' E 028°39'1 1.2
2018-Apr-30 23:58N 44°09' E 028°39'0 0.0
2018-Apr-30 23:22N 44°09' E 028°39'0 0.0
2018-Apr-30 22:58N 44°09' E 028°39'0 0.0
2018-Apr-30 22:28N 44°09' E 028°39'0 0.0
2018-Apr-30 21:58N 44°09' E 028°39'0 0.0
2018-Apr-29 10:28N 44°09' E 028°39'0 0.0
2018-Apr-29 09:58N 44°09' E 028°39'0 0.0
2018-Apr-29 09:28N 44°09' E 028°39'0 0.0
2018-Apr-29 08:58N 44°09' E 028°39'0 0.0
2018-Apr-29 08:28N 44°09' E 028°39'0 0.0
2018-Apr-29 07:55N 44°09' E 028°39'0 0.0
2018-Apr-29 07:28N 44°09' E 028°39'0 0.0
2018-Apr-29 06:55N 44°09' E 028°39'0 0.0
2018-Apr-29 06:28N 44°09' E 028°39'0 0.0
2018-Apr-29 05:49N 44°09' E 028°39'0 0.0
2018-Apr-29 05:28N 44°09' E 028°39'0 0.0
2018-Apr-29 04:59N 44°09' E 028°39'0 0.0
2018-Apr-29 04:30N 44°09' E 028°39'0 0.0
2018-Apr-29 04:00N 44°09' E 028°39'0 0.0
2018-Apr-29 03:30N 44°09' E 028°39'0 0.0
2018-Apr-29 03:00N 44°09' E 028°39'0 0.0
2018-Apr-29 02:30N 44°09' E 028°39'0 0.0
2018-Apr-29 01:57N 44°09' E 028°39'0 0.0
2018-Apr-29 01:30N 44°09' E 028°39'0 0.0
2018-Apr-29 01:00N 44°09' E 028°39'0 0.0
2018-Apr-29 00:30N 44°09' E 028°39'0 0.0
2018-Apr-29 00:00N 44°09' E 028°39'0 0.0
2018-Apr-28 23:30N 44°10' E 028°39'0 0.0
2018-Apr-28 23:00N 44°09' E 028°39'0 0.0
2018-Apr-28 22:30N 44°10' E 028°39'0 0.0
2018-Apr-28 22:00N 44°09' E 028°39'0 0.0
2018-Apr-28 21:30N 44°09' E 028°39'0 0.0
2018-Apr-28 20:57N 44°09' E 028°39'0 0.0
2018-Apr-28 20:30N 44°10' E 028°39'0 0.1
2018-Apr-28 20:00N 44°09' E 028°39'0 0.0
2018-Apr-28 19:30N 44°09' E 028°39'0 0.0
2018-Apr-28 19:00N 44°09' E 028°39'0 0.0
2018-Apr-28 18:27N 44°09' E 028°39'0 0.0
2018-Apr-28 18:00N 44°09' E 028°39'0 0.0
2018-Apr-28 17:30N 44°09' E 028°39'0 0.0
2018-Apr-28 17:00N 44°09' E 028°39'0 0.0
2018-Apr-28 16:30N 44°09' E 028°39'0 0.0
2018-Apr-28 16:00N 44°09' E 028°39'0 0.0
2018-Apr-28 15:30N 44°09' E 028°39'0 0.0
2018-Apr-28 15:00N 44°09' E 028°39'0 0.0
2018-Apr-28 14:30N 44°09' E 028°39'0 0.0
2018-Apr-28 14:00N 44°10' E 028°39'0 0.0
2018-Apr-28 13:30N 44°09' E 028°39'0 0.0
2018-Apr-28 13:00N 44°09' E 028°39'0 0.0
2018-Apr-28 12:27N 44°09' E 028°39'0 0.0
2018-Apr-28 12:00N 44°09' E 028°39'0 0.1
2018-Apr-28 11:30N 44°10' E 028°39'0 0.1
2018-Apr-28 11:00N 44°09' E 028°39'0 0.0
2018-Apr-28 10:30N 44°09' E 028°39'0 0.0
2018-Apr-28 10:00N 44°09' E 028°39'0 0.0
2018-Apr-28 09:30N 44°09' E 028°39'0 0.0
2018-Apr-28 08:57N 44°09' E 028°39'0 0.1
2018-Apr-28 08:30N 44°10' E 028°39'0 0.1
2018-Apr-28 08:00N 44°09' E 028°39'0 0.0
2018-Apr-28 07:30N 44°09' E 028°39'0 0.0
2018-Apr-28 06:51N 44°09' E 028°39'0 0.0
2018-Apr-28 06:30N 44°09' E 028°39'0 0.0
2018-Apr-28 06:00N 44°09' E 028°39'0 0.0
2018-Apr-28 05:27N 44°09' E 028°39'0 0.0
2018-Apr-28 05:00N 44°09' E 028°39'0 0.0
2018-Apr-28 04:27N 44°09' E 028°39'0 0.0
2018-Apr-28 04:00N 44°09' E 028°39'0 0.0
2018-Apr-28 03:27N 44°09' E 028°39'0 0.0
2018-Apr-28 03:00N 44°09' E 028°39'0 0.0
2018-Apr-28 02:30N 44°09' E 028°39'0 0.0
2018-Apr-28 02:00N 44°09' E 028°39'0 0.0
2018-Apr-28 01:27N 44°09' E 028°39'0 0.0
2018-Apr-28 01:00N 44°09' E 028°39'0 0.0
2018-Apr-28 00:30N 44°09' E 028°39'0 0.0
2018-Apr-28 00:00N 44°09' E 028°39'0 0.0
2018-Apr-27 23:30N 44°09' E 028°39'0 0.0
2018-Apr-27 23:00N 44°09' E 028°39'0 0.0
2018-Apr-27 22:30N 44°09' E 028°39'0 0.0
2018-Apr-27 22:00N 44°09' E 028°39'0 0.0
2018-Apr-27 21:30N 44°09' E 028°39'0 0.0
2018-Apr-27 20:57N 44°09' E 028°39'0 0.0
2018-Apr-27 20:30N 44°09' E 028°39'0 0.0
2018-Apr-27 19:57N 44°09' E 028°39'0 0.0
2018-Apr-27 19:30N 44°09' E 028°39'0 0.0
2018-Apr-27 19:00N 44°09' E 028°39'0 0.0
2018-Apr-27 18:30N 44°09' E 028°39'0 0.0
2018-Apr-27 17:57N 44°09' E 028°39'0 0.0
2018-Apr-27 17:30N 44°09' E 028°39'0 0.0
2018-Apr-27 17:00N 44°09' E 028°39'0 0.0
2018-Apr-27 16:30N 44°09' E 028°39'0 0.0
2018-Apr-27 15:51N 44°09' E 028°39'0 0.0
2018-Apr-27 15:30N 44°09' E 028°39'0 0.0
2018-Apr-27 15:00N 44°09' E 028°39'0 0.0
2018-Apr-27 14:30N 44°09' E 028°39'  

Dump ship's entire track history